Terminal Aerodrome Forecast
Issued by NWS

Home | Current Version | Previous Version | Graphics & Text | Print | Product List | Glossary On
Versions: 1 2 3 4 5 6 7 8 9 10 11 12 13 14 15 16 17 18 19 20
279
FTUS43 KIWX 262332
TAFSBN
TAF
KSBN 262332Z 2700/2724 20005KT P6SM SCT025 BKN045
      TEMPO 2700/2702 BKN025
     FM270200 22005KT 6SM BR OVC015
     FM270600 24004KT 4SM BR BKN003 OVC012
     FM271000 24004KT 1SM BR OVC003
     FM271500 25003KT 5SM BR OVC003
     FM271800 23004KT P6SM OVC015
     FM272300 03006KT 4SM RA OVC012=

USA.gov is the U.S. government's official web portal to all federal, state and local government web resources and services.